Time;durP1;ratioP1;P1;durP2;ratioP2;P2;SDS_P1;SDS_P2;PMS_P1;PMS_P2;Temp;Humidity;BMP_temperature;BMP_pressure;BME280_temperature;BME280_humidity;BME280_pressure;Samples;Min_cycle;Max_cycle;Signal;HPM_P1;HPM_P2
2023/07/01 00:01:25;;;;;;;;;;;23.90;90.10;;;;;;5094820;28;20325;-39
2023/07/01 00:03:50;;;;;;;;;;;23.90;90.10;;;;;;5094513;28;19941;-39
2023/07/01 00:06:16;;;;;;;;;;;23.90;90.10;;;;;;5076753;28;19919;-39
2023/07/01 00:08:42;;;;;;;;;;;23.80;90.10;;;;;;5094810;28;20261;-39
2023/07/01 00:11:07;;;;;;;;;;;23.90;90.10;;;;;;5094707;28;19908;-39
2023/07/01 00:13:33;;;;;;;;;;;23.80;90.10;;;;;;5094755;28;19904;-38
2023/07/01 00:15:59;;;;;;;;;;;23.80;90.10;;;;;;5094468;28;19905;-39
2023/07/01 00:18:24;;;;;;;;;;;23.90;90.20;;;;;;5094338;28;19907;-39
2023/07/01 00:20:50;;;;;;;;;;;23.90;90.20;;;;;;5076354;28;19904;-39
2023/07/01 00:23:16;;;;;;;;;;;23.90;90.20;;;;;;5094581;28;19904;-39
2023/07/01 00:25:41;;;;;;;;;;;23.90;90.20;;;;;;5094565;28;20015;-39
2023/07/01 00:28:06;;;;;;;;;;;23.90;90.20;;;;;;5094476;28;19904;-39
2023/07/01 00:30:32;;;;;;;;;;;23.90;90.20;;;;;;5094437;28;20364;-39
2023/07/01 00:32:57;;;;;;;;;;;23.90;90.20;;;;;;5094118;28;19908;-39
2023/07/01 00:35:23;;;;;;;;;;;23.90;90.20;;;;;;5094136;28;19904;-39
2023/07/01 00:37:48;;;;;;;;;;;23.90;90.20;;;;;;5094200;28;19927;-39
2023/07/01 00:40:14;;;;;;;;;;;23.90;90.20;;;;;;5094213;28;19904;-39
2023/07/01 00:42:39;;;;;;;;;;;23.80;90.20;;;;;;5094585;28;19939;-39
2023/07/01 00:45:05;;;;;;;;;;;23.80;90.30;;;;;;5093831;28;20366;-40
2023/07/01 00:47:30;;;;;;;;;;;23.80;90.20;;;;;;5094221;28;19908;-39
2023/07/01 00:49:56;;;;;;;;;;;23.80;90.30;;;;;;5093878;28;19904;-39
2023/07/01 00:52:22;;;;;;;;;;;23.80;90.20;;;;;;5094075;28;19974;-39
2023/07/01 00:54:48;;;;;;;;;;;23.80;90.30;;;;;;5076054;28;19905;-39
2023/07/01 00:57:13;;;;;;;;;;;23.80;90.20;;;;;;5093884;28;19912;-39
2023/07/01 00:59:39;;;;;;;;;;;23.80;90.20;;;;;;5093780;28;19927;-39
2023/07/01 01:02:06;;;;;;;;;;;23.80;90.20;;;;;;5094109;28;19904;-39
2023/07/01 01:04:45;;;;;;;;;;;23.80;90.30;;;;;;5093703;28;19916;-39
2023/07/01 01:07:21;;;;;;;;;;;23.80;90.20;;;;;;5093865;28;19904;-39
2023/07/01 01:09:52;;;;;;;;;;;23.80;90.30;;;;;;5075631;28;19911;-40
2023/07/01 01:12:19;;;;;;;;;;;23.80;90.30;;;;;;5093968;28;19904;-39
2023/07/01 01:14:46;;;;;;;;;;;23.80;90.30;;;;;;5093964;28;20006;-39
2023/07/01 01:17:13;;;;;;;;;;;23.80;90.30;;;;;;5093725;28;19949;-39
2023/07/01 01:19:59;;;;;;;;;;;23.80;90.30;;;;;;5093884;28;19904;-39
2023/07/01 01:22:37;;;;;;;;;;;23.80;90.20;;;;;;5093896;28;19958;-39
2023/07/01 01:25:05;;;;;;;;;;;23.80;90.30;;;;;;5093669;28;20359;-39
2023/07/01 01:27:40;;;;;;;;;;;23.80;90.20;;;;;;5093911;28;19990;-39
2023/07/01 01:30:06;;;;;;;;;;;23.80;90.20;;;;;;5094106;28;19912;-39
2023/07/01 01:32:33;;;;;;;;;;;23.80;90.20;;;;;;5093618;28;19914;-39
2023/07/01 01:34:59;;;;;;;;;;;23.80;90.20;;;;;;5093645;28;19906;-39
2023/07/01 01:37:29;;;;;;;;;;;23.80;90.20;;;;;;5093828;28;20008;-39
2023/07/01 01:39:57;;;;;;;;;;;23.80;90.20;;;;;;5093740;28;19940;-39
2023/07/01 01:42:30;;;;;;;;;;;23.80;90.20;;;;;;5093424;28;19904;-39
2023/07/01 01:44:57;;;;;;;;;;;23.80;90.20;;;;;;5075457;28;19916;-39
2023/07/01 01:47:23;;;;;;;;;;;23.80;90.20;;;;;;5093704;28;19911;-39
2023/07/01 01:49:51;;;;;;;;;;;23.80;90.20;;;;;;5093366;28;20350;-39
2023/07/01 01:52:17;;;;;;;;;;;23.80;90.20;;;;;;5094355;28;19972;-41
2023/07/01 01:54:46;;;;;;;;;;;23.80;90.20;;;;;;5097344;28;19904;-39
2023/07/01 01:57:12;;;;;;;;;;;23.80;90.20;;;;;;5097334;28;19910;-39
2023/07/01 01:59:38;;;;;;;;;;;23.80;90.20;;;;;;5096957;28;19904;-39
2023/07/01 02:02:04;;;;;;;;;;;23.80;90.20;;;;;;5096956;28;19904;-39
2023/07/01 02:04:29;;;;;;;;;;;23.80;90.20;;;;;;5096793;28;20310;-40
2023/07/01 02:06:55;;;;;;;;;;;23.80;90.20;;;;;;5097086;28;19904;-39
2023/07/01 02:09:21;;;;;;;;;;;23.80;90.20;;;;;;5096724;28;20007;-40
2023/07/01 02:11:47;;;;;;;;;;;23.80;90.20;;;;;;5097028;28;20335;-41
2023/07/01 02:14:12;;;;;;;;;;;23.80;90.20;;;;;;5097045;28;19957;-39
2023/07/01 02:16:38;;;;;;;;;;;23.80;90.20;;;;;;5096606;28;19904;-39
2023/07/01 02:19:06;;;;;;;;;;;23.80;90.10;;;;;;5096867;28;19904;-39
2023/07/01 02:21:32;;;;;;;;;;;23.80;90.10;;;;;;5096835;28;19916;-39
2023/07/01 02:23:57;;;;;;;;;;;23.80;90.10;;;;;;5097138;28;19908;-39
2023/07/01 02:26:24;;;;;;;;;;;23.80;90.10;;;;;;5096619;28;19912;-39
2023/07/01 02:28:49;;;;;;;;;;;23.80;90.10;;;;;;5096764;28;19991;-40
2023/07/01 02:31:17;;;;;;;;;;;23.70;90.10;;;;;;5096628;28;20484;-39
2023/07/01 02:33:46;;;;;;;;;;;23.80;90.10;;;;;;5096672;28;19930;-39
2023/07/01 02:36:12;;;;;;;;;;;23.80;90.10;;;;;;5096597;28;19904;-39
2023/07/01 02:38:37;;;;;;;;;;;23.80;90.20;;;;;;5096488;28;19904;-39
2023/07/01 02:41:03;;;;;;;;;;;23.80;90.10;;;;;;5096115;28;20393;-39
2023/07/01 02:43:28;;;;;;;;;;;23.80;90.20;;;;;;5096073;28;19904;-39
2023/07/01 02:45:54;;;;;;;;;;;23.80;90.10;;;;;;5096312;28;19916;-39
2023/07/01 02:48:19;;;;;;;;;;;23.80;90.20;;;;;;5096068;28;19904;-39
2023/07/01 02:50:45;;;;;;;;;;;23.70;90.20;;;;;;5095940;28;20323;-39
2023/07/01 02:53:10;;;;;;;;;;;23.80;90.20;;;;;;5095942;28;19912;-39
2023/07/01 02:55:36;;;;;;;;;;;23.70;90.20;;;;;;5096196;28;19904;-39
2023/07/01 02:58:01;;;;;;;;;;;23.70;90.20;;;;;;5096062;28;19933;-39
2023/07/01 03:00:27;;;;;;;;;;;23.70;90.20;;;;;;5095822;28;20271;-39
2023/07/01 03:02:52;;;;;;;;;;;23.70;90.20;;;;;;5095852;28;19904;-39
2023/07/01 03:05:20;;;;;;;;;;;23.70;90.30;;;;;;5095888;28;19912;-40
2023/07/01 03:07:46;;;;;;;;;;;23.70;90.30;;;;;;5077880;28;20008;-39
2023/07/01 03:10:12;;;;;;;;;;;23.70;90.30;;;;;;5095898;28;20398;-39
2023/07/01 03:12:37;;;;;;;;;;;23.70;90.30;;;;;;5095800;28;19904;-39
2023/07/01 03:15:03;;;;;;;;;;;23.70;90.30;;;;;;5095474;28;19951;-39
2023/07/01 03:17:28;;;;;;;;;;;23.70;90.30;;;;;;5095753;28;20236;-39
2023/07/01 03:19:54;;;;;;;;;;;23.70;90.40;;;;;;5096106;28;20019;-39
2023/07/01 03:22:19;;;;;;;;;;;23.70;90.40;;;;;;5095696;28;19904;-40
2023/07/01 03:24:45;;;;;;;;;;;23.70;90.40;;;;;;5095293;28;19965;-39
2023/07/01 03:27:10;;;;;;;;;;;23.70;90.40;;;;;;5095556;28;20436;-39
2023/07/01 03:29:36;;;;;;;;;;;23.70;90.40;;;;;;5095226;28;19904;-39
2023/07/01 03:32:03;;;;;;;;;;;23.70;90.40;;;;;;5095428;28;20010;-39
2023/07/01 03:34:29;;;;;;;;;;;23.70;90.50;;;;;;5095633;28;19904;-39
2023/07/01 03:36:54;;;;;;;;;;;23.70;90.50;;;;;;5077224;28;19904;-39
2023/07/01 03:39:20;;;;;;;;;;;23.70;90.50;;;;;;5095360;28;20253;-40
2023/07/01 03:41:46;;;;;;;;;;;23.70;90.50;;;;;;5094986;28;20239;-39
2023/07/01 03:44:12;;;;;;;;;;;23.70;90.50;;;;;;5095023;28;20034;-39
2023/07/01 03:46:37;;;;;;;;;;;23.70;90.50;;;;;;5095113;28;19918;-39
2023/07/01 03:49:03;;;;;;;;;;;23.70;90.50;;;;;;5076996;28;19904;-39
2023/07/01 03:51:29;;;;;;;;;;;23.70;90.50;;;;;;5094834;28;20343;-39
2023/07/01 03:53:55;;;;;;;;;;;23.70;90.50;;;;;;5094987;28;19910;-39
2023/07/01 03:56:21;;;;;;;;;;;23.70;90.50;;;;;;5094944;28;19908;-39
2023/07/01 03:58:46;;;;;;;;;;;23.70;90.50;;;;;;5095017;28;20338;-39
2023/07/01 04:01:16;;;;;;;;;;;23.70;90.50;;;;;;5094949;28;19904;-39
2023/07/01 04:03:41;;;;;;;;;;;23.70;90.50;;;;;;5094556;28;20319;-39
2023/07/01 04:06:07;;;;;;;;;;;23.70;90.50;;;;;;5094868;28;20014;-39
2023/07/01 04:08:33;;;;;;;;;;;23.70;90.50;;;;;;5076582;28;19994;-39
2023/07/01 04:10:58;;;;;;;;;;;23.70;90.50;;;;;;5076935;28;19956;-39
2023/07/01 04:13:24;;;;;;;;;;;23.70;90.50;;;;;;5094410;28;19958;-39
2023/07/01 04:15:49;;;;;;;;;;;23.70;90.50;;;;;;5076257;28;19904;-39
2023/07/01 04:18:15;;;;;;;;;;;23.70;90.50;;;;;;5094748;28;20042;-39
2023/07/01 04:20:40;;;;;;;;;;;23.70;90.50;;;;;;5094703;28;19904;-39
2023/07/01 04:23:06;;;;;;;;;;;23.70;90.50;;;;;;5094906;28;20366;-39
2023/07/01 04:25:31;;;;;;;;;;;23.70;90.50;;;;;;5094530;28;20014;-40
2023/07/01 04:27:57;;;;;;;;;;;23.70;90.50;;;;;;5094470;28;19990;-39
2023/07/01 04:30:23;;;;;;;;;;;23.70;90.50;;;;;;5094464;28;19904;-39
2023/07/01 04:32:48;;;;;;;;;;;23.70;90.50;;;;;;5094371;28;19904;-39
2023/07/01 04:35:14;;;;;;;;;;;23.70;90.50;;;;;;5094321;28;19927;-39
2023/07/01 04:37:40;;;;;;;;;;;23.70;90.50;;;;;;5094657;28;20392;-39
2023/07/01 04:40:05;;;;;;;;;;;23.70;90.50;;;;;;5093968;28;19944;-39
2023/07/01 04:42:32;;;;;;;;;;;23.70;90.50;;;;;;5093081;28;19908;-39
2023/07/01 04:44:58;;;;;;;;;;;23.70;90.50;;;;;;5093991;28;19916;-39
2023/07/01 04:47:24;;;;;;;;;;;23.70;90.50;;;;;;5094042;28;19904;-39
2023/07/01 04:49:52;;;;;;;;;;;23.70;90.70;;;;;;5094417;28;19904;-39
2023/07/01 04:52:21;;;;;;;;;;;23.70;90.50;;;;;;5094182;28;19904;-39
2023/07/01 04:54:47;;;;;;;;;;;23.70;90.50;;;;;;5094125;28;19932;-39
2023/07/01 04:57:13;;;;;;;;;;;23.70;90.40;;;;;;5094125;28;19904;-40
2023/07/01 04:59:38;;;;;;;;;;;23.70;90.40;;;;;;5094077;28;19927;-39
2023/07/01 05:02:04;;;;;;;;;;;23.70;90.40;;;;;;5094200;28;19911;-39
2023/07/01 05:04:29;;;;;;;;;;;23.70;90.40;;;;;;5094001;28;20303;-39
2023/07/01 05:06:55;;;;;;;;;;;23.70;90.40;;;;;;5093790;28;20007;-39
2023/07/01 05:09:20;;;;;;;;;;;23.70;90.60;;;;;;5094080;28;19947;-39
2023/07/01 05:11:46;;;;;;;;;;;23.60;90.30;;;;;;5093962;28;19908;-39
2023/07/01 05:14:11;;;;;;;;;;;23.70;90.40;;;;;;5093735;28;19912;-39
2023/07/01 05:16:36;;;;;;;;;;;23.70;90.40;;;;;;5094273;28;20296;-40
2023/07/01 05:19:02;;;;;;;;;;;23.70;90.30;;;;;;5094173;28;19904;-39
2023/07/01 05:21:31;;;;;;;;;;;23.70;90.30;;;;;;5093922;28;19905;-40
2023/07/01 05:23:56;;;;;;;;;;;23.70;90.30;;;;;;5093802;28;20346;-39
2023/07/01 05:26:22;;;;;;;;;;;23.70;90.40;;;;;;5093840;28;19912;-39
2023/07/01 05:28:48;;;;;;;;;;;23.60;90.30;;;;;;5097443;28;19939;-39
2023/07/01 05:31:13;;;;;;;;;;;23.70;90.30;;;;;;5097551;28;19904;-39
2023/07/01 05:33:39;;;;;;;;;;;23.60;90.30;;;;;;5097598;28;19904;-39
2023/07/01 05:36:04;;;;;;;;;;;23.60;90.30;;;;;;5097588;28;19908;-39
2023/07/01 05:38:30;;;;;;;;;;;23.60;90.30;;;;;;5097595;28;19931;-39
2023/07/01 05:40:55;;;;;;;;;;;23.60;90.30;;;;;;5097255;28;19991;-39
2023/07/01 05:43:20;;;;;;;;;;;23.70;90.30;;;;;;5097537;28;19908;-39
2023/07/01 05:45:46;;;;;;;;;;;23.70;90.30;;;;;;5097512;28;20370;-39
2023/07/01 05:48:11;;;;;;;;;;;23.70;90.30;;;;;;5097775;28;19912;-39
2023/07/01 05:50:39;;;;;;;;;;;23.60;90.30;;;;;;5097379;28;19911;-39
2023/07/01 05:53:05;;;;;;;;;;;23.70;90.40;;;;;;5097622;28;19904;-39
2023/07/01 05:55:30;;;;;;;;;;;23.70;90.40;;;;;;5097252;28;19913;-39
2023/07/01 05:57:56;;;;;;;;;;;23.60;90.40;;;;;;5097244;28;20385;-39
2023/07/01 06:00:22;;;;;;;;;;;23.70;90.40;;;;;;5096651;28;20271;-39
2023/07/01 06:02:47;;;;;;;;;;;23.70;90.40;;;;;;5097015;28;19981;-39
2023/07/01 06:05:12;;;;;;;;;;;23.70;90.40;;;;;;5096633;28;19977;-39
2023/07/01 06:07:38;;;;;;;;;;;23.60;90.30;;;;;;5096997;28;19904;-39
2023/07/01 06:10:03;;;;;;;;;;;23.70;90.40;;;;;;5096820;28;19908;-39
2023/07/01 06:12:29;;;;;;;;;;;23.70;90.40;;;;;;5096665;28;19957;-39
2023/07/01 06:14:54;;;;;;;;;;;23.70;90.40;;;;;;5097256;28;20305;-39
2023/07/01 06:17:20;;;;;;;;;;;23.70;90.30;;;;;;5095126;28;20070;-39
2023/07/01 06:19:45;;;;;;;;;;;23.70;90.30;;;;;;5096303;28;20368;-39
2023/07/01 06:22:11;;;;;;;;;;;23.70;90.30;;;;;;5108548;28;19914;-39
2023/07/01 06:24:36;;;;;;;;;;;23.60;90.30;;;;;;5105711;28;19908;-39
2023/07/01 06:27:03;;;;;;;;;;;23.70;90.30;;;;;;5096246;28;19905;-40
2023/07/01 06:29:28;;;;;;;;;;;23.70;90.30;;;;;;5078516;28;20312;-39
2023/07/01 06:31:54;;;;;;;;;;;23.70;90.60;;;;;;5096616;28;19908;-39
2023/07/01 06:34:19;;;;;;;;;;;23.70;90.30;;;;;;5096422;28;20355;-39
2023/07/01 06:36:45;;;;;;;;;;;23.70;90.30;;;;;;5095330;28;20263;-39
2023/07/01 06:39:12;;;;;;;;;;;23.70;90.30;;;;;;5095941;28;19935;-39
2023/07/01 06:41:37;;;;;;;;;;;23.70;90.30;;;;;;5094405;28;20332;-39
2023/07/01 06:44:03;;;;;;;;;;;23.70;90.30;;;;;;5096293;28;19955;-39
2023/07/01 06:46:28;;;;;;;;;;;23.70;90.50;;;;;;5096118;28;19916;-39
2023/07/01 06:48:54;;;;;;;;;;;23.70;90.30;;;;;;5095942;28;19908;-39
2023/07/01 06:51:19;;;;;;;;;;;23.70;90.30;;;;;;5096319;28;19908;-39
2023/07/01 06:53:45;;;;;;;;;;;23.70;90.30;;;;;;5095798;28;19912;-39
2023/07/01 06:56:10;;;;;;;;;;;23.60;90.30;;;;;;5078387;28;19908;-39
2023/07/01 06:58:36;;;;;;;;;;;23.70;90.30;;;;;;5095887;28;19912;-39
2023/07/01 07:01:02;;;;;;;;;;;23.70;90.30;;;;;;5095680;28;19999;-39
2023/07/01 07:03:28;;;;;;;;;;;23.70;90.30;;;;;;5095813;28;19908;-39
2023/07/01 07:05:54;;;;;;;;;;;23.70;90.30;;;;;;5095551;28;19916;-43
2023/07/01 07:08:20;;;;;;;;;;;23.70;90.30;;;;;;5095466;28;19915;-39
2023/07/01 07:10:45;;;;;;;;;;;23.70;90.40;;;;;;5095732;28;20274;-39
2023/07/01 07:13:11;;;;;;;;;;;23.70;90.30;;;;;;5107372;28;19962;-39
2023/07/01 07:15:38;;;;;;;;;;;23.70;90.30;;;;;;5115861;28;19915;-39
2023/07/01 07:18:06;;;;;;;;;;;23.70;90.30;;;;;;5115782;28;19907;-39
2023/07/01 07:20:31;;;;;;;;;;;23.70;90.30;;;;;;5115806;28;19918;-39
2023/07/01 07:22:57;;;;;;;;;;;23.70;90.40;;;;;;5115722;28;19998;-39
2023/07/01 07:25:22;;;;;;;;;;;23.70;90.40;;;;;;5115833;28;19942;-39
2023/07/01 07:27:48;;;;;;;;;;;23.70;90.40;;;;;;5115199;28;19908;-39
2023/07/01 07:30:14;;;;;;;;;;;23.70;90.40;;;;;;5114783;28;19915;-39
2023/07/01 07:32:39;;;;;;;;;;;23.70;90.40;;;;;;5115437;28;20408;-39
2023/07/01 07:35:05;;;;;;;;;;;23.70;90.40;;;;;;5115246;28;19911;-39
2023/07/01 07:37:30;;;;;;;;;;;23.70;90.40;;;;;;5102498;28;19995;-39
2023/07/01 07:39:59;;;;;;;;;;;23.70;90.40;;;;;;5094879;28;19908;-39
2023/07/01 07:42:24;;;;;;;;;;;23.70;90.40;;;;;;5094471;28;20278;-41
2023/07/01 07:44:50;;;;;;;;;;;23.70;90.40;;;;;;5094834;28;19942;-39
2023/07/01 07:47:16;;;;;;;;;;;23.70;90.40;;;;;;5094771;28;19908;-39
2023/07/01 07:49:41;;;;;;;;;;;23.70;90.40;;;;;;5093821;28;20008;-39
2023/07/01 07:52:07;;;;;;;;;;;23.70;90.40;;;;;;5094394;28;20363;-39
2023/07/01 07:54:32;;;;;;;;;;;23.70;90.40;;;;;;5094326;28;19966;-40
2023/07/01 07:56:59;;;;;;;;;;;23.70;90.40;;;;;;5076402;28;19962;-39
2023/07/01 07:59:25;;;;;;;;;;;23.60;90.30;;;;;;5094656;28;19908;-39
2023/07/01 08:01:52;;;;;;;;;;;23.70;90.40;;;;;;5094623;28;20330;-39
2023/07/01 08:04:17;;;;;;;;;;;23.70;90.40;;;;;;5094951;28;19953;-39
2023/07/01 08:06:43;;;;;;;;;;;23.60;90.30;;;;;;5075966;28;19920;-39
2023/07/01 08:09:08;;;;;;;;;;;23.70;90.40;;;;;;5094625;28;19920;-39
2023/07/01 08:11:34;;;;;;;;;;;23.70;90.40;;;;;;5092913;28;19912;-39
2023/07/01 08:13:59;;;;;;;;;;;23.70;90.40;;;;;;5094119;28;19912;-39
2023/07/01 08:16:25;;;;;;;;;;;23.70;88.80;;;;;;5094369;28;19908;-39
2023/07/01 08:18:50;;;;;;;;;;;23.70;89.90;;;;;;5094361;28;19908;-39
2023/07/01 08:21:15;;;;;;;;;;;23.70;90.10;;;;;;5085113;28;19972;-39
2023/07/01 08:23:41;;;;;;;;;;;23.70;90.20;;;;;;5114731;28;19919;-39
2023/07/01 08:26:06;;;;;;;;;;;23.70;90.20;;;;;;5083389;28;19920;-39
2023/07/01 08:28:32;;;;;;;;;;;23.70;90.20;;;;;;5092435;28;20335;-40
2023/07/01 08:30:58;;;;;;;;;;;23.60;88.10;;;;;;5092960;28;19916;-39
2023/07/01 08:33:24;;;;;;;;;;;23.60;88.10;;;;;;5105167;28;19919;-39
2023/07/01 08:35:50;;;;;;;;;;;23.70;88.60;;;;;;5101644;28;19919;-39
2023/07/01 08:38:15;;;;;;;;;;;23.60;89.00;;;;;;5093601;28;19912;-38
2023/07/01 08:40:41;;;;;;;;;;;23.70;89.30;;;;;;5093468;28;19974;-38
2023/07/01 08:43:09;;;;;;;;;;;23.70;89.60;;;;;;5093877;28;20324;-39
2023/07/01 08:45:35;;;;;;;;;;;23.70;89.80;;;;;;5093168;28;20371;-38
2023/07/01 08:48:00;;;;;;;;;;;23.70;90.00;;;;;;5093487;28;19908;-39
2023/07/01 08:50:33;;;;;;;;;;;23.70;90.00;;;;;;5075467;28;20003;-39
2023/07/01 08:53:03;;;;;;;;;;;23.70;90.10;;;;;;5093916;28;19908;-39
2023/07/01 08:55:30;;;;;;;;;;;23.70;90.10;;;;;;5093810;28;19916;-39
2023/07/01 08:57:55;;;;;;;;;;;23.70;90.10;;;;;;5093952;28;19923;-39
2023/07/01 09:00:21;;;;;;;;;;;23.70;90.10;;;;;;5093678;28;19912;-39
2023/07/01 09:02:47;;;;;;;;;;;23.70;90.20;;;;;;5097494;28;19991;-39
2023/07/01 09:05:13;;;;;;;;;;;23.70;90.20;;;;;;5098038;28;19916;-39
2023/07/01 09:07:40;;;;;;;;;;;23.70;90.20;;;;;;5098405;28;20007;-39
2023/07/01 09:10:07;;;;;;;;;;;23.70;90.20;;;;;;5097641;28;19908;-39
2023/07/01 09:12:32;;;;;;;;;;;23.70;90.20;;;;;;5097712;28;19915;-39
2023/07/01 09:14:59;;;;;;;;;;;23.70;90.20;;;;;;5097913;28;19916;-39
2023/07/01 09:17:31;;;;;;;;;;;23.70;90.20;;;;;;5097917;28;19966;-39
2023/07/01 09:19:58;;;;;;;;;;;23.70;90.20;;;;;;5097834;28;19908;-39
2023/07/01 09:22:23;;;;;;;;;;;23.70;90.20;;;;;;5097663;28;19954;-39
2023/07/01 09:24:49;;;;;;;;;;;23.70;90.30;;;;;;5097637;28;19917;-39
2023/07/01 09:27:14;;;;;;;;;;;23.70;90.30;;;;;;5097424;28;20337;-39
2023/07/01 09:29:40;;;;;;;;;;;23.70;90.30;;;;;;5097303;28;19978;-39
2023/07/01 09:32:06;;;;;;;;;;;23.70;90.30;;;;;;5097601;28;19908;-39
2023/07/01 09:34:50;;;;;;;;;;;23.70;90.30;;;;;;5097332;28;19999;-39
2023/07/01 09:37:19;;;;;;;;;;;23.70;90.30;;;;;;5097006;28;19908;-39
2023/07/01 09:39:44;;;;;;;;;;;23.70;90.30;;;;;;5097025;28;19932;-38
2023/07/01 09:42:10;;;;;;;;;;;23.70;90.30;;;;;;5097489;28;20270;-38
2023/07/01 09:44:35;;;;;;;;;;;23.70;90.30;;;;;;5097239;28;19924;-39
2023/07/01 09:47:01;;;;;;;;;;;23.70;90.30;;;;;;5096984;28;19974;-39
2023/07/01 09:49:38;;;;;;;;;;;23.70;90.30;;;;;;5096878;28;20347;-39
2023/07/01 09:52:04;;;;;;;;;;;23.70;90.30;;;;;;5096662;28;20259;-38
2023/07/01 09:54:30;;;;;;;;;;;23.70;90.30;;;;;;5096616;28;19915;-39
2023/07/01 09:56:56;;;;;;;;;;;23.70;90.30;;;;;;5096641;28;19908;-38
2023/07/01 09:59:22;;;;;;;;;;;23.70;90.30;;;;;;5097014;28;20264;-38
2023/07/01 10:01:50;;;;;;;;;;;23.70;90.30;;;;;;5097015;28;19981;-38
2023/07/01 10:04:18;;;;;;;;;;;23.70;90.40;;;;;;5096674;28;20279;-38
2023/07/01 10:06:44;;;;;;;;;;;23.70;90.30;;;;;;5096701;28;19915;-38
2023/07/01 10:09:09;;;;;;;;;;;23.70;90.30;;;;;;5096833;28;20420;-38
2023/07/01 10:11:35;;;;;;;;;;;23.70;90.30;;;;;;5096604;28;19947;-38
2023/07/01 10:14:03;;;;;;;;;;;23.70;90.30;;;;;;5077855;28;20267;-38
2023/07/01 10:16:29;;;;;;;;;;;23.70;90.30;;;;;;5096953;28;19916;-39
2023/07/01 10:18:54;;;;;;;;;;;23.70;90.30;;;;;;5096287;28;19909;-39
2023/07/01 10:21:23;;;;;;;;;;;23.70;90.30;;;;;;5096231;28;19909;-38
2023/07/01 10:23:49;;;;;;;;;;;23.70;90.30;;;;;;5096516;28;19909;-38
2023/07/01 10:26:36;;;;;;;;;;;23.70;90.30;;;;;;5096208;28;19965;-39
2023/07/01 10:29:20;;;;;;;;;;;23.70;90.30;;;;;;5096588;28;20267;-39
2023/07/01 10:32:04;;;;;;;;;;;23.70;90.30;;;;;;5096453;28;19959;-39
2023/07/01 10:34:48;;;;;;;;;;;23.70;90.30;;;;;;5096044;28;19908;-39
2023/07/01 10:37:13;;;;;;;;;;;23.70;90.30;;;;;;5095962;28;20354;-39
2023/07/01 10:39:39;;;;;;;;;;;23.70;90.30;;;;;;5095800;28;19972;-38
2023/07/01 10:42:09;;;;;;;;;;;23.70;90.30;;;;;;5095767;28;20006;-39
2023/07/01 10:44:35;;;;;;;;;;;23.70;90.30;;;;;;5095944;28;19920;-39
2023/07/01 10:47:15;;;;;;;;;;;23.70;90.30;;;;;;5095916;28;19919;-38
2023/07/01 10:50:07;;;;;;;;;;;23.70;90.30;;;;;;5077862;28;19954;-39
2023/07/01 10:52:53;;;;;;;;;;;23.70;90.30;;;;;;5091030;28;19908;-39
2023/07/01 10:55:38;;;;;;;;;;;23.70;90.30;;;;;;5095407;28;19908;-38
2023/07/01 10:58:13;;;;;;;;;;;23.70;90.30;;;;;;5095888;28;19915;-39
2023/07/01 11:00:39;;;;;;;;;;;23.70;90.30;;;;;;5095773;28;19908;-39
2023/07/01 11:03:09;;;;;;;;;;;23.70;90.30;;;;;;5095608;28;19954;-39
2023/07/01 11:05:36;;;;;;;;;;;23.70;90.30;;;;;;5095804;28;20003;-39
2023/07/01 11:08:08;;;;;;;;;;;23.70;90.30;;;;;;5093692;28;20255;-39
2023/07/01 11:10:34;;;;;;;;;;;23.80;90.30;;;;;;5098856;28;19912;-39
2023/07/01 11:13:01;;;;;;;;;;;23.80;90.30;;;;;;5108948;28;19920;-39
2023/07/01 11:15:26;;;;;;;;;;;23.70;90.30;;;;;;5096175;28;20378;-39
2023/07/01 11:17:53;;;;;;;;;;;23.70;90.30;;;;;;5099182;28;19958;-39
2023/07/01 11:20:18;;;;;;;;;;;23.80;90.30;;;;;;5115795;28;19951;-39
2023/07/01 11:22:44;;;;;;;;;;;23.70;90.30;;;;;;5077591;28;19955;-39
2023/07/01 11:25:09;;;;;;;;;;;23.70;90.30;;;;;;5105914;28;19922;-39
2023/07/01 11:27:40;;;;;;;;;;;23.70;90.30;;;;;;5115941;28;19911;-39
2023/07/01 11:30:06;;;;;;;;;;;23.80;90.30;;;;;;5107687;28;20355;-39
2023/07/01 11:32:31;;;;;;;;;;;23.80;90.30;;;;;;5091728;28;19932;-39
2023/07/01 11:34:57;;;;;;;;;;;23.80;90.30;;;;;;5092273;28;19923;-39
2023/07/01 11:37:24;;;;;;;;;;;23.80;90.30;;;;;;5108781;28;19912;-39
2023/07/01 11:39:49;;;;;;;;;;;23.80;90.20;;;;;;5104928;28;19912;-40
2023/07/01 11:42:15;;;;;;;;;;;23.80;90.10;;;;;;5099339;28;20273;-41
2023/07/01 11:44:40;;;;;;;;;;;23.70;90.00;;;;;;5076600;28;19946;-40
2023/07/01 11:47:13;;;;;;;;;;;23.80;89.30;;;;;;5085513;28;20011;-39
2023/07/01 11:49:39;;;;;;;;;;;23.70;89.10;;;;;;5102419;28;19915;-39
2023/07/01 11:52:06;;;;;;;;;;;23.70;88.80;;;;;;5095024;28;19912;-39
2023/07/01 11:54:45;;;;;;;;;;;23.70;86.10;;;;;;5094507;28;20010;-40
2023/07/01 11:57:12;;;;;;;;;;;23.70;85.30;;;;;;5089763;28;20269;-39
2023/07/01 11:59:38;;;;;;;;;;;23.70;85.30;;;;;;5103326;28;19903;-39
2023/07/01 12:02:04;;;;;;;;;;;23.70;85.90;;;;;;5104036;28;20389;-41
2023/07/01 12:04:29;;;;;;;;;;;23.70;86.40;;;;;;5094100;28;19911;-39
2023/07/01 12:07:08;;;;;;;;;;;23.70;87.30;;;;;;5096031;28;19915;-40
2023/07/01 12:09:34;;;;;;;;;;;23.70;88.00;;;;;;5097554;28;19965;-40
2023/07/01 12:11:59;;;;;;;;;;;23.70;88.70;;;;;;5095262;28;19923;-39
2023/07/01 12:14:25;;;;;;;;;;;23.70;89.10;;;;;;5112629;28;19903;-39
2023/07/01 12:16:51;;;;;;;;;;;23.70;89.50;;;;;;5111680;28;19908;-39
2023/07/01 12:19:17;;;;;;;;;;;23.70;89.80;;;;;;5109452;28;19908;-40
2023/07/01 12:21:43;;;;;;;;;;;23.70;90.00;;;;;;5102082;28;19904;-40
2023/07/01 12:24:20;;;;;;;;;;;23.70;90.10;;;;;;5109880;28;19914;-39
2023/07/01 12:26:50;;;;;;;;;;;23.70;90.20;;;;;;5114660;28;19907;-40
2023/07/01 12:29:15;;;;;;;;;;;23.80;90.30;;;;;;5114551;28;19946;-38
2023/07/01 12:31:41;;;;;;;;;;;23.80;90.30;;;;;;5112215;28;19949;-40
2023/07/01 12:34:06;;;;;;;;;;;23.80;90.40;;;;;;5111459;28;19914;-40
2023/07/01 12:36:32;;;;;;;;;;;23.80;90.40;;;;;;5111745;28;19907;-40
2023/07/01 12:38:58;;;;;;;;;;;23.80;90.50;;;;;;5104841;28;20284;-40
2023/07/01 12:41:25;;;;;;;;;;;23.80;90.40;;;;;;5096143;28;19908;-40
2023/07/01 12:43:52;;;;;;;;;;;23.80;90.40;;;;;;5114151;28;19904;-40
2023/07/01 12:46:19;;;;;;;;;;;23.90;90.40;;;;;;5108296;28;20216;-40
2023/07/01 12:48:44;;;;;;;;;;;23.90;90.50;;;;;;5113987;28;20496;-40
2023/07/01 12:51:10;;;;;;;;;;;23.90;90.40;;;;;;5114032;28;19935;-41
2023/07/01 12:53:35;;;;;;;;;;;23.90;90.40;;;;;;5114211;28;20301;-39
2023/07/01 12:56:01;;;;;;;;;;;23.90;90.40;;;;;;5096887;28;19991;-39
2023/07/01 12:58:26;;;;;;;;;;;23.90;90.40;;;;;;5093846;28;19908;-40
2023/07/01 13:00:52;;;;;;;;;;;23.90;90.40;;;;;;5093916;28;20357;-41
2023/07/01 13:03:17;;;;;;;;;;;24.00;90.40;;;;;;5091964;28;19991;-41
2023/07/01 13:05:43;;;;;;;;;;;23.90;90.40;;;;;;5101903;28;19916;-44
2023/07/01 13:08:10;;;;;;;;;;;23.90;90.40;;;;;;5113844;28;20346;-40
2023/07/01 13:10:42;;;;;;;;;;;24.00;90.40;;;;;;5111621;28;19911;-41
2023/07/01 13:13:08;;;;;;;;;;;24.00;90.50;;;;;;5094750;28;19908;-40
2023/07/01 13:15:34;;;;;;;;;;;24.00;90.50;;;;;;5093104;28;19912;-40
2023/07/01 13:18:03;;;;;;;;;;;24.00;90.40;;;;;;5091358;28;19931;-40
2023/07/01 13:20:28;;;;;;;;;;;24.00;90.40;;;;;;5091809;28;19904;-39
2023/07/01 13:22:55;;;;;;;;;;;24.00;90.40;;;;;;5096858;28;19999;-39
2023/07/01 13:25:22;;;;;;;;;;;24.00;90.40;;;;;;5091521;28;19916;-40
2023/07/01 13:27:47;;;;;;;;;;;24.00;90.40;;;;;;5093595;28;19908;-42
2023/07/01 13:30:35;;;;;;;;;;;24.00;90.40;;;;;;5094002;28;19927;-40
2023/07/01 13:33:02;;;;;;;;;;;24.00;90.30;;;;;;5092378;28;19910;-40
2023/07/01 13:35:28;;;;;;;;;;;24.00;90.30;;;;;;5092316;28;19908;-39
2023/07/01 13:38:00;;;;;;;;;;;24.00;90.30;;;;;;5075378;28;20343;-40
2023/07/01 13:40:25;;;;;;;;;;;24.00;90.30;;;;;;5093422;28;19904;-39
2023/07/01 13:42:51;;;;;;;;;;;24.00;90.30;;;;;;5113633;28;19914;-41
2023/07/01 13:45:23;;;;;;;;;;;24.10;90.30;;;;;;5095140;28;19923;-44
2023/07/01 13:47:49;;;;;;;;;;;24.10;90.30;;;;;;5108975;28;19912;-39
2023/07/01 13:50:23;;;;;;;;;;;24.00;90.30;;;;;;5117241;28;19950;-39
2023/07/01 13:52:49;;;;;;;;;;;24.10;90.30;;;;;;5098344;28;19999;-40
2023/07/01 13:55:16;;;;;;;;;;;24.10;90.30;;;;;;5097400;28;19943;-39
2023/07/01 13:57:41;;;;;;;;;;;24.10;90.50;;;;;;5106279;28;19971;-40
2023/07/01 14:00:08;;;;;;;;;;;24.10;90.20;;;;;;5117715;28;19914;-39
2023/07/01 14:02:38;;;;;;;;;;;24.10;90.20;;;;;;5105160;28;19942;-41
2023/07/01 14:05:04;;;;;;;;;;;24.10;90.20;;;;;;5096723;28;19916;-39
2023/07/01 14:07:30;;;;;;;;;;;24.10;90.20;;;;;;5094228;28;20181;-39
2023/07/01 14:09:55;;;;;;;;;;;24.10;90.20;;;;;;5096705;28;19974;-39
2023/07/01 14:12:21;;;;;;;;;;;24.10;90.20;;;;;;5096276;28;20268;-39
2023/07/01 14:14:47;;;;;;;;;;;24.10;90.20;;;;;;5114631;28;19972;-40